Erval Grande, Brazil
Current Conditions -  °F | °C
As of 8:00 PM on Monday 24 Nov 2014 (Local Time) from SBCH Reporting Station
Clear Clear  
Wind Chill: 82°   Ceiling: Unl
Heat Index: 85°   Visibility: 6mi
Dew Point: 66°   Wind: 3mph
Humidity: 58%   Direction: 20°NNE
Pressure: 29.83"   Gusts: NA
Location:  27.39°S, 52.57°W
Report Text: SBCH 242200Z 02003KT CAVOK 28/19 Q1010
Loading
Personal Weather Stations






























Interactive Weather Map New forecast layout! Learn more

10-Day Weather Forecast

Advertisements
Track Severe Weather on mobile